LFGJ/DLE METAR and TAF weather

Enter ICAO airport designator
Station Type Date Time Source
LFGJ METAR 2019/06/18 11:00 UTC NOAA

LFGJ 181100Z AUTO 21005KT CAVOK 25/18 Q1014 NOSIG


Station Type Date Time Source
LFGJ Decoded METAR 2019/06/18 11:00 UTC NOAA

Dole Tavaux, France (LFGJ) 47-02-34N 005-26-06E
Jun 18, 2019 - 07:00 AM EDT / 2019.06.18 1100 UTC
Wind: from the SSW (210 degrees) at 6 MPH (5 KT):0
Visibility: greater than 7 mile(s):0
Temperature: 77 F (25 C)
Dew Point: 64 F (18 C)
Relative Humidity: 65%
Pressure (altimeter): 29.94 in. Hg (1014 hPa)
ob: LFGJ 181100Z AUTO 21005KT CAVOK 25/18 Q1014 NOSIG
cycle: 11

Station Type Date Time Source
LFGJ TAF 2012/05/01 21:57 UTC NOAA

TAF
AMD TAF
AMD LFGJ 010355Z 3021/0106 18008KT 9999 FEW023 SCT035 BKN050
TEMPO 0102/0103 4000 -SHRA BR FEW012TCU BKN015
BECMG 0103/0104 VRB03KT 0200 FG VV///

Example: see airport list